sensor_id;sensor_type;location;lat;lon;timestamp;P1;durP1;ratioP1;P2;durP2;ratioP2
80281;SDS011;69586;51.890;-8.458;2024-01-10T08:03:38;4.10;;;2.13;;
80281;SDS011;69586;51.890;-8.458;2024-01-10T08:06:04;6.45;;;2.42;;
80281;SDS011;69586;51.890;-8.458;2024-01-10T08:08:31;6.40;;;3.35;;
80281;SDS011;69586;51.890;-8.458;2024-01-10T08:10:56;7.47;;;3.20;;
80281;SDS011;69586;51.890;-8.458;2024-01-10T08:13:22;8.30;;;3.35;;
80281;SDS011;69586;51.890;-8.458;2024-01-10T08:15:48;3.72;;;2.75;;
80281;SDS011;69586;51.890;-8.458;2024-01-10T08:18:14;2.50;;;2.20;;
80281;SDS011;69586;51.890;-8.458;2024-01-10T08:20:39;5.65;;;2.10;;
80281;SDS011;69586;51.890;-8.458;2024-01-10T08:23:05;4.93;;;2.17;;
80281;SDS011;69586;51.890;-8.458;2024-01-10T08:25:31;2.22;;;2.10;;
80281;SDS011;69586;51.890;-8.458;2024-01-10T08:27:57;3.08;;;2.10;;
80281;SDS011;69586;51.890;-8.458;2024-01-10T08:30:23;6.30;;;3.85;;
80281;SDS011;69586;51.890;-8.458;2024-01-10T08:32:49;10.18;;;5.97;;
80281;SDS011;69586;51.890;-8.458;2024-01-10T08:35:15;8.95;;;4.32;;
80281;SDS011;69586;51.890;-8.458;2024-01-10T08:37:41;10.20;;;5.00;;
80281;SDS011;69586;51.890;-8.458;2024-01-10T08:40:11;6.50;;;3.72;;
80281;SDS011;69586;51.890;-8.458;2024-01-10T08:42:43;9.27;;;3.67;;
80281;SDS011;69586;51.890;-8.458;2024-01-10T08:45:09;6.80;;;4.07;;
80281;SDS011;69586;51.890;-8.458;2024-01-10T08:47:36;5.30;;;3.30;;
80281;SDS011;69586;51.890;-8.458;2024-01-10T08:50:02;5.22;;;2.67;;
80281;SDS011;69586;51.890;-8.458;2024-01-10T08:52:30;5.88;;;3.05;;
80281;SDS011;69586;51.890;-8.458;2024-01-10T08:54:56;5.18;;;2.60;;
80281;SDS011;69586;51.890;-8.458;2024-01-10T08:57:22;5.38;;;2.80;;
80281;SDS011;69586;51.890;-8.458;2024-01-10T08:59:48;3.95;;;2.85;;
80281;SDS011;69586;51.890;-8.458;2024-01-10T09:02:14;3.80;;;2.58;;
80281;SDS011;69586;51.890;-8.458;2024-01-10T09:04:40;5.43;;;2.90;;
80281;SDS011;69586;51.890;-8.458;2024-01-10T09:07:06;2.90;;;2.60;;
80281;SDS011;69586;51.890;-8.458;2024-01-10T09:09:34;11.05;;;2.90;;
80281;SDS011;69586;51.890;-8.458;2024-01-10T09:12:00;8.27;;;2.75;;
80281;SDS011;69586;51.890;-8.458;2024-01-10T09:14:26;6.72;;;3.00;;
80281;SDS011;69586;51.890;-8.458;2024-01-10T09:16:51;5.63;;;2.83;;
80281;SDS011;69586;51.890;-8.458;2024-01-10T09:19:17;4.53;;;2.30;;
80281;SDS011;69586;51.890;-8.458;2024-01-10T09:21:43;4.22;;;2.58;;
80281;SDS011;69586;51.890;-8.458;2024-01-10T09:24:09;4.25;;;2.60;;
80281;SDS011;69586;51.890;-8.458;2024-01-10T09:26:36;2.28;;;2.10;;
80281;SDS011;69586;51.890;-8.458;2024-01-10T09:29:02;8.75;;;2.45;;
80281;SDS011;69586;51.890;-8.458;2024-01-10T09:31:27;2.83;;;2.33;;
80281;SDS011;69586;51.890;-8.458;2024-01-10T09:33:53;4.70;;;2.60;;
80281;SDS011;69586;51.890;-8.458;2024-01-10T09:36:20;12.15;;;3.60;;
80281;SDS011;69586;51.890;-8.458;2024-01-10T09:38:45;4.32;;;2.92;;
80281;SDS011;69586;51.890;-8.458;2024-01-10T09:41:11;5.63;;;2.60;;
80281;SDS011;69586;51.890;-8.458;2024-01-10T09:43:38;4.35;;;2.40;;
80281;SDS011;69586;51.890;-8.458;2024-01-10T09:46:04;6.05;;;3.78;;
80281;SDS011;69586;51.890;-8.458;2024-01-10T09:48:32;9.18;;;4.15;;
80281;SDS011;69586;51.890;-8.458;2024-01-10T09:50:58;6.15;;;3.45;;
80281;SDS011;69586;51.890;-8.458;2024-01-10T09:53:25;4.90;;;2.65;;
80281;SDS011;69586;51.890;-8.458;2024-01-10T09:55:56;5.37;;;3.43;;
80281;SDS011;69586;51.890;-8.458;2024-01-10T09:58:25;4.57;;;2.92;;
80281;SDS011;69586;51.890;-8.458;2024-01-10T10:00:51;8.55;;;3.13;;
80281;SDS011;69586;51.890;-8.458;2024-01-10T11:48:05;7.03;;;1.90;;
80281;SDS011;69586;51.890;-8.458;2024-01-10T11:50:32;5.97;;;1.85;;
80281;SDS011;69586;51.890;-8.458;2024-01-10T11:52:58;3.35;;;1.73;;
80281;SDS011;69586;51.890;-8.458;2024-01-10T11:58:13;6.22;;;2.00;;
80281;SDS011;69586;51.890;-8.458;2024-01-10T12:00:39;7.05;;;2.10;;
80281;SDS011;69586;51.890;-8.458;2024-01-10T12:03:07;6.85;;;3.50;;
80281;SDS011;69586;51.890;-8.458;2024-01-10T12:05:34;9.05;;;2.85;;
80281;SDS011;69586;51.890;-8.458;2024-01-10T12:08:00;7.65;;;3.50;;
80281;SDS011;69586;51.890;-8.458;2024-01-10T12:10:29;5.22;;;2.10;;
80281;SDS011;69586;51.890;-8.458;2024-01-10T12:13:00;5.93;;;1.95;;
80281;SDS011;69586;51.890;-8.458;2024-01-10T12:15:26;6.45;;;2.08;;
80281;SDS011;69586;51.890;-8.458;2024-01-10T12:17:52;5.55;;;2.00;;
80281;SDS011;69586;51.890;-8.458;2024-01-10T12:20:18;5.00;;;1.80;;
80281;SDS011;69586;51.890;-8.458;2024-01-10T12:22:43;4.50;;;1.80;;
80281;SDS011;69586;51.890;-8.458;2024-01-10T12:25:10;5.63;;;1.70;;
80281;SDS011;69586;51.890;-8.458;2024-01-10T12:27:35;3.58;;;2.00;;
80281;SDS011;69586;51.890;-8.458;2024-01-10T12:30:01;7.20;;;1.92;;
80281;SDS011;69586;51.890;-8.458;2024-01-10T12:32:28;1.50;;;1.40;;
80281;SDS011;69586;51.890;-8.458;2024-01-10T12:35:03;4.13;;;1.65;;
80281;SDS011;69586;51.890;-8.458;2024-01-10T12:37:30;2.42;;;1.70;;
80281;SDS011;69586;51.890;-8.458;2024-01-10T12:39:56;4.22;;;1.83;;
80281;SDS011;69586;51.890;-8.458;2024-01-10T12:42:22;3.97;;;2.05;;
80281;SDS011;69586;51.890;-8.458;2024-01-10T12:44:51;6.25;;;1.80;;
80281;SDS011;69586;51.890;-8.458;2024-01-10T12:47:21;4.90;;;2.17;;
80281;SDS011;69586;51.890;-8.458;2024-01-10T12:49:48;9.57;;;1.85;;
80281;SDS011;69586;51.890;-8.458;2024-01-10T12:52:14;6.70;;;2.35;;
80281;SDS011;69586;51.890;-8.458;2024-01-10T12:54:40;3.75;;;2.03;;
80281;SDS011;69586;51.890;-8.458;2024-01-10T12:57:07;5.00;;;1.90;;
80281;SDS011;69586;51.890;-8.458;2024-01-10T12:59:33;5.18;;;2.40;;
80281;SDS011;69586;51.890;-8.458;2024-01-10T13:01:59;4.95;;;2.40;;
80281;SDS011;69586;51.890;-8.458;2024-01-10T13:04:25;4.50;;;2.38;;
80281;SDS011;69586;51.890;-8.458;2024-01-10T13:06:51;5.43;;;2.53;;
80281;SDS011;69586;51.890;-8.458;2024-01-10T13:09:17;6.78;;;2.58;;
80281;SDS011;69586;51.890;-8.458;2024-01-10T13:11:43;3.30;;;2.40;;
80281;SDS011;69586;51.890;-8.458;2024-01-10T13:14:10;5.38;;;3.78;;
80281;SDS011;69586;51.890;-8.458;2024-01-10T13:16:37;9.85;;;5.68;;
80281;SDS011;69586;51.890;-8.458;2024-01-10T13:19:03;6.45;;;3.72;;
80281;SDS011;69586;51.890;-8.458;2024-01-10T13:21:28;7.20;;;3.40;;
80281;SDS011;69586;51.890;-8.458;2024-01-10T13:23:54;6.57;;;3.10;;
80281;SDS011;69586;51.890;-8.458;2024-01-10T13:26:20;9.23;;;2.47;;
80281;SDS011;69586;51.890;-8.458;2024-01-10T13:28:46;8.15;;;3.25;;
80281;SDS011;69586;51.890;-8.458;2024-01-10T13:31:12;7.03;;;2.90;;
80281;SDS011;69586;51.890;-8.458;2024-01-10T13:33:38;5.70;;;2.60;;
80281;SDS011;69586;51.890;-8.458;2024-01-10T13:36:04;3.90;;;2.40;;
80281;SDS011;69586;51.890;-8.458;2024-01-10T13:38:30;5.30;;;2.53;;
80281;SDS011;69586;51.890;-8.458;2024-01-10T13:40:56;3.50;;;2.20;;
80281;SDS011;69586;51.890;-8.458;2024-01-10T13:43:22;6.00;;;2.53;;
80281;SDS011;69586;51.890;-8.458;2024-01-10T13:45:48;5.05;;;2.60;;
80281;SDS011;69586;51.890;-8.458;2024-01-10T13:48:13;4.88;;;2.10;;
80281;SDS011;69586;51.890;-8.458;2024-01-10T13:50:41;4.60;;;2.20;;
80281;SDS011;69586;51.890;-8.458;2024-01-10T13:53:07;6.82;;;2.05;;
80281;SDS011;69586;51.890;-8.458;2024-01-10T13:55:33;5.32;;;2.00;;
80281;SDS011;69586;51.890;-8.458;2024-01-10T13:58:00;6.25;;;1.90;;
80281;SDS011;69586;51.890;-8.458;2024-01-10T14:00:26;3.47;;;1.95;;
80281;SDS011;69586;51.890;-8.458;2024-01-10T14:02:52;4.97;;;1.52;;
80281;SDS011;69586;51.890;-8.458;2024-01-10T14:05:24;5.70;;;2.22;;
80281;SDS011;69586;51.890;-8.458;2024-01-10T14:07:50;5.68;;;3.00;;
80281;SDS011;69586;51.890;-8.458;2024-01-10T14:10:16;12.88;;;5.38;;
80281;SDS011;69586;51.890;-8.458;2024-01-10T14:12:41;25.08;;;11.30;;
80281;SDS011;69586;51.890;-8.458;2024-01-10T14:15:07;12.50;;;4.43;;
80281;SDS011;69586;51.890;-8.458;2024-01-10T14:17:34;5.95;;;3.05;;
80281;SDS011;69586;51.890;-8.458;2024-01-10T14:20:00;10.40;;;3.92;;
80281;SDS011;69586;51.890;-8.458;2024-01-10T14:22:26;6.55;;;3.38;;
80281;SDS011;69586;51.890;-8.458;2024-01-10T14:24:51;9.73;;;2.83;;
80281;SDS011;69586;51.890;-8.458;2024-01-10T14:27:19;6.18;;;3.17;;
80281;SDS011;69586;51.890;-8.458;2024-01-10T14:29:45;5.15;;;2.63;;
80281;SDS011;69586;51.890;-8.458;2024-01-10T14:32:11;5.30;;;2.60;;
80281;SDS011;69586;51.890;-8.458;2024-01-10T14:34:40;6.47;;;2.97;;
80281;SDS011;69586;51.890;-8.458;2024-01-10T14:37:06;7.18;;;2.83;;
80281;SDS011;69586;51.890;-8.458;2024-01-10T14:39:33;6.60;;;3.38;;
80281;SDS011;69586;51.890;-8.458;2024-01-10T14:41:59;7.30;;;2.80;;
80281;SDS011;69586;51.890;-8.458;2024-01-10T14:44:27;5.25;;;2.78;;
80281;SDS011;69586;51.890;-8.458;2024-01-10T14:46:52;3.70;;;2.45;;
80281;SDS011;69586;51.890;-8.458;2024-01-10T14:49:18;7.72;;;2.60;;
80281;SDS011;69586;51.890;-8.458;2024-01-10T14:51:44;2.85;;;2.40;;
80281;SDS011;69586;51.890;-8.458;2024-01-10T14:54:10;2.33;;;2.10;;
80281;SDS011;69586;51.890;-8.458;2024-01-10T14:56:35;4.20;;;2.10;;
80281;SDS011;69586;51.890;-8.458;2024-01-10T14:59:02;3.15;;;2.05;;
80281;SDS011;69586;51.890;-8.458;2024-01-10T15:01:28;2.30;;;1.90;;
80281;SDS011;69586;51.890;-8.458;2024-01-10T15:03:54;8.70;;;2.30;;
80281;SDS011;69586;51.890;-8.458;2024-01-10T15:06:20;5.47;;;2.03;;
80281;SDS011;69586;51.890;-8.458;2024-01-10T15:08:47;3.75;;;2.63;;
80281;SDS011;69586;51.890;-8.458;2024-01-10T15:11:12;6.03;;;2.90;;
80281;SDS011;69586;51.890;-8.458;2024-01-10T15:13:41;4.00;;;2.25;;
80281;SDS011;69586;51.890;-8.458;2024-01-10T15:16:07;4.28;;;2.40;;
80281;SDS011;69586;51.890;-8.458;2024-01-10T15:18:33;7.13;;;2.10;;
80281;SDS011;69586;51.890;-8.458;2024-01-10T15:20:59;4.85;;;2.17;;
80281;SDS011;69586;51.890;-8.458;2024-01-10T15:23:24;2.65;;;2.20;;
80281;SDS011;69586;51.890;-8.458;2024-01-10T15:25:50;5.38;;;2.45;;
80281;SDS011;69586;51.890;-8.458;2024-01-10T15:28:16;3.50;;;2.63;;
80281;SDS011;69586;51.890;-8.458;2024-01-10T15:30:42;5.55;;;2.80;;
80281;SDS011;69586;51.890;-8.458;2024-01-10T15:33:07;4.82;;;2.00;;
80281;SDS011;69586;51.890;-8.458;2024-01-10T15:35:34;3.60;;;2.58;;
80281;SDS011;69586;51.890;-8.458;2024-01-10T15:38:00;3.42;;;2.17;;
80281;SDS011;69586;51.890;-8.458;2024-01-10T15:40:27;4.75;;;2.10;;
80281;SDS011;69586;51.890;-8.458;2024-01-10T15:42:53;2.40;;;2.20;;
80281;SDS011;69586;51.890;-8.458;2024-01-10T15:45:18;4.30;;;2.40;;
80281;SDS011;69586;51.890;-8.458;2024-01-10T15:47:44;4.80;;;2.42;;
80281;SDS011;69586;51.890;-8.458;2024-01-10T15:50:10;3.28;;;2.55;;
80281;SDS011;69586;51.890;-8.458;2024-01-10T15:52:36;2.92;;;2.20;;
80281;SDS011;69586;51.890;-8.458;2024-01-10T15:55:02;3.67;;;1.80;;
80281;SDS011;69586;51.890;-8.458;2024-01-10T15:57:29;5.05;;;2.17;;
80281;SDS011;69586;51.890;-8.458;2024-01-10T15:59:54;2.80;;;2.10;;
80281;SDS011;69586;51.890;-8.458;2024-01-10T16:02:23;2.28;;;1.98;;
80281;SDS011;69586;51.890;-8.458;2024-01-10T16:04:48;10.45;;;2.28;;
80281;SDS011;69586;51.890;-8.458;2024-01-10T16:07:14;6.45;;;1.95;;
80281;SDS011;69586;51.890;-8.458;2024-01-10T16:09:40;2.20;;;2.03;;
80281;SDS011;69586;51.890;-8.458;2024-01-10T16:12:06;9.50;;;2.10;;
80281;SDS011;69586;51.890;-8.458;2024-01-10T16:14:32;2.22;;;2.03;;
80281;SDS011;69586;51.890;-8.458;2024-01-10T16:16:59;3.47;;;2.25;;
80281;SDS011;69586;51.890;-8.458;2024-01-10T16:19:24;3.05;;;1.92;;
80281;SDS011;69586;51.890;-8.458;2024-01-10T16:21:50;2.13;;;1.80;;
80281;SDS011;69586;51.890;-8.458;2024-01-10T16:24:16;3.83;;;1.80;;
80281;SDS011;69586;51.890;-8.458;2024-01-10T16:26:42;2.45;;;2.10;;
80281;SDS011;69586;51.890;-8.458;2024-01-10T16:29:08;2.80;;;2.05;;
80281;SDS011;69586;51.890;-8.458;2024-01-10T16:31:34;2.15;;;1.90;;
80281;SDS011;69586;51.890;-8.458;2024-01-10T16:34:00;2.25;;;1.90;;
80281;SDS011;69586;51.890;-8.458;2024-01-10T16:36:26;2.28;;;2.15;;
80281;SDS011;69586;51.890;-8.458;2024-01-10T16:38:51;2.72;;;2.03;;
80281;SDS011;69586;51.890;-8.458;2024-01-10T16:41:19;3.17;;;2.03;;
80281;SDS011;69586;51.890;-8.458;2024-01-10T16:43:45;2.85;;;2.10;;
80281;SDS011;69586;51.890;-8.458;2024-01-10T16:46:11;6.30;;;2.50;;
80281;SDS011;69586;51.890;-8.458;2024-01-10T16:48:36;4.07;;;2.58;;
80281;SDS011;69586;51.890;-8.458;2024-01-10T16:51:02;3.05;;;2.08;;
80281;SDS011;69586;51.890;-8.458;2024-01-10T16:53:28;4.93;;;2.40;;
80281;SDS011;69586;51.890;-8.458;2024-01-10T16:55:54;2.20;;;2.00;;
80281;SDS011;69586;51.890;-8.458;2024-01-10T16:58:21;4.03;;;2.60;;
80281;SDS011;69586;51.890;-8.458;2024-01-10T17:00:47;7.93;;;2.38;;
80281;SDS011;69586;51.890;-8.458;2024-01-10T17:03:13;4.07;;;2.90;;
80281;SDS011;69586;51.890;-8.458;2024-01-10T17:05:39;3.72;;;2.78;;
80281;SDS011;69586;51.890;-8.458;2024-01-10T17:08:05;2.72;;;2.53;;
80281;SDS011;69586;51.890;-8.458;2024-01-10T17:10:31;3.33;;;3.03;;
80281;SDS011;69586;51.890;-8.458;2024-01-10T17:12:57;6.45;;;3.10;;
80281;SDS011;69586;51.890;-8.458;2024-01-10T17:15:23;3.45;;;2.72;;
80281;SDS011;69586;51.890;-8.458;2024-01-10T17:17:48;4.20;;;2.80;;
80281;SDS011;69586;51.890;-8.458;2024-01-10T17:20:14;3.03;;;2.60;;
80281;SDS011;69586;51.890;-8.458;2024-01-10T17:22:40;3.13;;;2.65;;
80281;SDS011;69586;51.890;-8.458;2024-01-10T17:25:06;4.47;;;3.13;;
80281;SDS011;69586;51.890;-8.458;2024-01-10T17:27:36;2.70;;;2.50;;
80281;SDS011;69586;51.890;-8.458;2024-01-10T17:30:03;3.95;;;2.85;;
80281;SDS011;69586;51.890;-8.458;2024-01-10T17:32:30;4.43;;;3.40;;
80281;SDS011;69586;51.890;-8.458;2024-01-10T17:34:55;5.18;;;3.08;;
80281;SDS011;69586;51.890;-8.458;2024-01-10T17:37:22;3.45;;;2.92;;
80281;SDS011;69586;51.890;-8.458;2024-01-10T17:39:48;6.88;;;3.05;;
80281;SDS011;69586;51.890;-8.458;2024-01-10T17:42:13;5.22;;;2.90;;
80281;SDS011;69586;51.890;-8.458;2024-01-10T17:44:39;7.20;;;3.28;;
80281;SDS011;69586;51.890;-8.458;2024-01-10T17:47:05;4.07;;;3.38;;
80281;SDS011;69586;51.890;-8.458;2024-01-10T17:49:32;5.07;;;3.58;;
80281;SDS011;69586;51.890;-8.458;2024-01-10T17:51:58;5.82;;;3.40;;
80281;SDS011;69586;51.890;-8.458;2024-01-10T17:54:24;5.40;;;2.90;;
80281;SDS011;69586;51.890;-8.458;2024-01-10T17:56:50;4.60;;;3.03;;
80281;SDS011;69586;51.890;-8.458;2024-01-10T17:59:15;3.65;;;3.10;;
80281;SDS011;69586;51.890;-8.458;2024-01-10T18:01:41;3.80;;;2.95;;
80281;SDS011;69586;51.890;-8.458;2024-01-10T18:04:07;3.83;;;2.60;;
80281;SDS011;69586;51.890;-8.458;2024-01-10T18:06:33;3.17;;;2.88;;
80281;SDS011;69586;51.890;-8.458;2024-01-10T18:09:00;5.70;;;3.28;;
80281;SDS011;69586;51.890;-8.458;2024-01-10T18:11:27;6.15;;;3.50;;
80281;SDS011;69586;51.890;-8.458;2024-01-10T18:13:54;3.35;;;2.90;;
80281;SDS011;69586;51.890;-8.458;2024-01-10T18:16:20;5.32;;;3.80;;
80281;SDS011;69586;51.890;-8.458;2024-01-10T18:18:45;3.83;;;3.45;;
80281;SDS011;69586;51.890;-8.458;2024-01-10T18:21:11;4.78;;;3.60;;
80281;SDS011;69586;51.890;-8.458;2024-01-10T18:23:39;8.45;;;6.22;;
80281;SDS011;69586;51.890;-8.458;2024-01-10T18:26:05;5.05;;;3.75;;
80281;SDS011;69586;51.890;-8.458;2024-01-10T18:28:31;5.13;;;4.10;;
80281;SDS011;69586;51.890;-8.458;2024-01-10T18:30:59;4.50;;;3.47;;
80281;SDS011;69586;51.890;-8.458;2024-01-10T18:33:25;5.13;;;3.90;;
80281;SDS011;69586;51.890;-8.458;2024-01-10T18:35:51;4.65;;;3.88;;
80281;SDS011;69586;51.890;-8.458;2024-01-10T18:38:17;5.93;;;4.07;;
80281;SDS011;69586;51.890;-8.458;2024-01-10T18:40:43;4.80;;;3.80;;
80281;SDS011;69586;51.890;-8.458;2024-01-10T18:43:10;3.63;;;3.00;;
80281;SDS011;69586;51.890;-8.458;2024-01-10T18:45:36;6.50;;;4.03;;
80281;SDS011;69586;51.890;-8.458;2024-01-10T18:48:02;5.30;;;3.85;;
80281;SDS011;69586;51.890;-8.458;2024-01-10T18:50:28;5.22;;;3.60;;
80281;SDS011;69586;51.890;-8.458;2024-01-10T18:52:54;4.50;;;3.50;;
80281;SDS011;69586;51.890;-8.458;2024-01-10T18:55:21;5.20;;;3.75;;
80281;SDS011;69586;51.890;-8.458;2024-01-10T18:57:47;4.95;;;3.88;;
80281;SDS011;69586;51.890;-8.458;2024-01-10T19:00:13;5.10;;;3.65;;
80281;SDS011;69586;51.890;-8.458;2024-01-10T19:02:42;6.05;;;4.07;;
80281;SDS011;69586;51.890;-8.458;2024-01-10T19:05:08;5.45;;;3.83;;
80281;SDS011;69586;51.890;-8.458;2024-01-10T19:07:33;5.65;;;4.38;;
80281;SDS011;69586;51.890;-8.458;2024-01-10T19:09:59;7.97;;;4.20;;
80281;SDS011;69586;51.890;-8.458;2024-01-10T19:12:26;6.88;;;4.03;;
80281;SDS011;69586;51.890;-8.458;2024-01-10T19:14:52;5.28;;;4.00;;
80281;SDS011;69586;51.890;-8.458;2024-01-10T19:17:18;6.57;;;4.30;;
